sensor_id;sensor_type;location;lat;lon;timestamp;P1;durP1;ratioP1;P2;durP2;ratioP2
59974;SDS011;62136;-35.664;-63.766;2023-05-10T00:01:52;15.77;;;5.80;;
59974;SDS011;62136;-35.664;-63.766;2023-05-10T00:04:19;13.82;;;5.47;;
59974;SDS011;62136;-35.664;-63.766;2023-05-10T00:06:47;11.73;;;5.95;;
59974;SDS011;62136;-35.664;-63.766;2023-05-10T00:09:14;10.68;;;5.38;;
59974;SDS011;62136;-35.664;-63.766;2023-05-10T00:11:41;14.50;;;5.72;;
59974;SDS011;62136;-35.664;-63.766;2023-05-10T00:14:08;13.15;;;6.00;;
59974;SDS011;62136;-35.664;-63.766;2023-05-10T00:16:35;17.88;;;6.03;;
59974;SDS011;62136;-35.664;-63.766;2023-05-10T00:19:02;19.77;;;6.35;;
59974;SDS011;62136;-35.664;-63.766;2023-05-10T00:21:29;17.38;;;5.65;;
59974;SDS011;62136;-35.664;-63.766;2023-05-10T00:23:57;18.60;;;5.97;;
59974;SDS011;62136;-35.664;-63.766;2023-05-10T00:26:25;12.68;;;5.68;;
59974;SDS011;62136;-35.664;-63.766;2023-05-10T00:28:52;13.70;;;6.10;;
59974;SDS011;62136;-35.664;-63.766;2023-05-10T00:31:19;17.05;;;6.25;;
59974;SDS011;62136;-35.664;-63.766;2023-05-10T00:33:47;23.65;;;6.88;;
59974;SDS011;62136;-35.664;-63.766;2023-05-10T00:36:14;13.82;;;6.00;;
59974;SDS011;62136;-35.664;-63.766;2023-05-10T00:38:41;22.10;;;6.72;;
59974;SDS011;62136;-35.664;-63.766;2023-05-10T00:41:08;19.80;;;6.60;;
59974;SDS011;62136;-35.664;-63.766;2023-05-10T00:43:38;16.08;;;6.10;;
59974;SDS011;62136;-35.664;-63.766;2023-05-10T00:46:05;14.20;;;5.82;;
59974;SDS011;62136;-35.664;-63.766;2023-05-10T00:48:32;17.67;;;5.85;;
59974;SDS011;62136;-35.664;-63.766;2023-05-10T00:51:00;14.10;;;6.45;;
59974;SDS011;62136;-35.664;-63.766;2023-05-10T00:53:28;15.10;;;6.60;;
59974;SDS011;62136;-35.664;-63.766;2023-05-10T00:55:58;14.25;;;6.55;;
59974;SDS011;62136;-35.664;-63.766;2023-05-10T00:58:25;14.95;;;6.03;;
59974;SDS011;62136;-35.664;-63.766;2023-05-10T01:00:54;14.60;;;5.47;;
59974;SDS011;62136;-35.664;-63.766;2023-05-10T01:03:22;12.15;;;5.18;;
59974;SDS011;62136;-35.664;-63.766;2023-05-10T01:05:50;13.98;;;5.13;;
59974;SDS011;62136;-35.664;-63.766;2023-05-10T01:08:17;15.00;;;5.53;;
59974;SDS011;62136;-35.664;-63.766;2023-05-10T01:10:45;16.15;;;5.90;;
59974;SDS011;62136;-35.664;-63.766;2023-05-10T01:13:17;11.52;;;6.07;;
59974;SDS011;62136;-35.664;-63.766;2023-05-10T01:15:52;12.13;;;5.78;;
59974;SDS011;62136;-35.664;-63.766;2023-05-10T01:18:21;12.57;;;6.20;;
59974;SDS011;62136;-35.664;-63.766;2023-05-10T01:20:49;15.07;;;6.57;;
59974;SDS011;62136;-35.664;-63.766;2023-05-10T01:26:14;13.20;;;6.78;;
59974;SDS011;62136;-35.664;-63.766;2023-05-10T01:34:39;16.95;;;6.85;;
59974;SDS011;62136;-35.664;-63.766;2023-05-10T01:37:17;16.63;;;5.97;;
59974;SDS011;62136;-35.664;-63.766;2023-05-10T01:40:00;17.23;;;6.15;;
59974;SDS011;62136;-35.664;-63.766;2023-05-10T01:42:56;15.57;;;6.47;;
59974;SDS011;62136;-35.664;-63.766;2023-05-10T01:45:37;16.40;;;4.93;;
59974;SDS011;62136;-35.664;-63.766;2023-05-10T01:48:24;21.55;;;6.53;;
59974;SDS011;62136;-35.664;-63.766;2023-05-10T01:50:53;15.88;;;5.88;;
59974;SDS011;62136;-35.664;-63.766;2023-05-10T01:53:21;13.27;;;5.55;;
59974;SDS011;62136;-35.664;-63.766;2023-05-10T01:55:50;15.07;;;5.68;;
59974;SDS011;62136;-35.664;-63.766;2023-05-10T01:58:24;14.43;;;5.88;;
59974;SDS011;62136;-35.664;-63.766;2023-05-10T02:00:58;15.90;;;5.78;;
59974;SDS011;62136;-35.664;-63.766;2023-05-10T02:03:27;10.75;;;5.68;;
59974;SDS011;62136;-35.664;-63.766;2023-05-10T02:05:56;10.75;;;5.35;;
59974;SDS011;62136;-35.664;-63.766;2023-05-10T02:08:24;10.32;;;5.32;;
59974;SDS011;62136;-35.664;-63.766;2023-05-10T02:10:55;12.23;;;5.20;;
59974;SDS011;62136;-35.664;-63.766;2023-05-10T02:13:24;11.18;;;5.40;;
59974;SDS011;62136;-35.664;-63.766;2023-05-10T02:15:53;10.73;;;5.55;;
59974;SDS011;62136;-35.664;-63.766;2023-05-10T02:18:22;9.02;;;5.00;;
59974;SDS011;62136;-35.664;-63.766;2023-05-10T02:20:55;9.20;;;4.70;;
59974;SDS011;62136;-35.664;-63.766;2023-05-10T02:23:23;10.20;;;5.20;;
59974;SDS011;62136;-35.664;-63.766;2023-05-10T02:25:52;11.35;;;5.28;;
59974;SDS011;62136;-35.664;-63.766;2023-05-10T02:28:23;12.48;;;4.90;;
59974;SDS011;62136;-35.664;-63.766;2023-05-10T02:30:52;11.95;;;5.25;;
59974;SDS011;62136;-35.664;-63.766;2023-05-10T02:33:20;9.70;;;4.97;;
59974;SDS011;62136;-35.664;-63.766;2023-05-10T02:35:48;9.15;;;4.50;;
59974;SDS011;62136;-35.664;-63.766;2023-05-10T02:38:16;16.55;;;5.40;;
59974;SDS011;62136;-35.664;-63.766;2023-05-10T02:40:46;12.68;;;4.47;;
59974;SDS011;62136;-35.664;-63.766;2023-05-10T02:43:15;8.95;;;4.70;;
59974;SDS011;62136;-35.664;-63.766;2023-05-10T02:45:44;7.72;;;4.88;;
59974;SDS011;62136;-35.664;-63.766;2023-05-10T02:48:13;9.27;;;4.35;;
59974;SDS011;62136;-35.664;-63.766;2023-05-10T02:50:43;12.68;;;5.15;;
59974;SDS011;62136;-35.664;-63.766;2023-05-10T02:53:15;14.00;;;5.13;;
59974;SDS011;62136;-35.664;-63.766;2023-05-10T02:55:49;8.52;;;4.70;;
59974;SDS011;62136;-35.664;-63.766;2023-05-10T02:58:18;9.60;;;4.10;;
59974;SDS011;62136;-35.664;-63.766;2023-05-10T03:00:46;8.02;;;4.35;;
59974;SDS011;62136;-35.664;-63.766;2023-05-10T03:03:13;9.07;;;4.70;;
59974;SDS011;62136;-35.664;-63.766;2023-05-10T03:05:40;8.23;;;4.82;;
59974;SDS011;62136;-35.664;-63.766;2023-05-10T03:08:07;7.47;;;3.88;;
59974;SDS011;62136;-35.664;-63.766;2023-05-10T03:10:38;8.35;;;4.53;;
59974;SDS011;62136;-35.664;-63.766;2023-05-10T03:13:31;11.50;;;4.40;;
59974;SDS011;62136;-35.664;-63.766;2023-05-10T03:16:10;8.80;;;4.57;;
59974;SDS011;62136;-35.664;-63.766;2023-05-10T03:18:50;9.70;;;4.60;;
59974;SDS011;62136;-35.664;-63.766;2023-05-10T03:21:41;8.98;;;4.13;;
59974;SDS011;62136;-35.664;-63.766;2023-05-10T03:24:13;8.65;;;4.50;;
59974;SDS011;62136;-35.664;-63.766;2023-05-10T03:26:41;9.00;;;4.30;;
59974;SDS011;62136;-35.664;-63.766;2023-05-10T03:29:11;9.05;;;4.70;;
59974;SDS011;62136;-35.664;-63.766;2023-05-10T03:31:40;11.13;;;4.90;;
59974;SDS011;62136;-35.664;-63.766;2023-05-10T03:34:07;8.52;;;3.97;;
59974;SDS011;62136;-35.664;-63.766;2023-05-10T03:36:36;7.20;;;4.38;;
59974;SDS011;62136;-35.664;-63.766;2023-05-10T03:39:03;9.35;;;4.97;;
59974;SDS011;62136;-35.664;-63.766;2023-05-10T03:41:30;9.07;;;4.07;;
59974;SDS011;62136;-35.664;-63.766;2023-05-10T03:43:57;5.70;;;3.97;;
59974;SDS011;62136;-35.664;-63.766;2023-05-10T03:46:24;7.72;;;4.13;;
59974;SDS011;62136;-35.664;-63.766;2023-05-10T03:48:51;7.20;;;4.10;;
59974;SDS011;62136;-35.664;-63.766;2023-05-10T03:51:18;6.38;;;4.10;;
59974;SDS011;62136;-35.664;-63.766;2023-05-10T03:53:45;8.43;;;4.00;;
59974;SDS011;62136;-35.664;-63.766;2023-05-10T03:56:12;5.75;;;3.80;;
59974;SDS011;62136;-35.664;-63.766;2023-05-10T03:58:46;9.23;;;4.32;;
59974;SDS011;62136;-35.664;-63.766;2023-05-10T04:01:13;5.97;;;4.57;;
59974;SDS011;62136;-35.664;-63.766;2023-05-10T04:03:41;8.48;;;3.90;;
59974;SDS011;62136;-35.664;-63.766;2023-05-10T04:06:09;9.50;;;4.45;;
59974;SDS011;62136;-35.664;-63.766;2023-05-10T04:08:37;8.90;;;4.05;;
59974;SDS011;62136;-35.664;-63.766;2023-05-10T04:11:04;8.23;;;4.22;;
59974;SDS011;62136;-35.664;-63.766;2023-05-10T04:13:36;8.50;;;4.03;;
59974;SDS011;62136;-35.664;-63.766;2023-05-10T04:16:03;7.50;;;3.92;;
59974;SDS011;62136;-35.664;-63.766;2023-05-10T04:18:31;9.25;;;3.83;;
59974;SDS011;62136;-35.664;-63.766;2023-05-10T04:20:58;6.53;;;3.95;;
59974;SDS011;62136;-35.664;-63.766;2023-05-10T04:23:25;7.50;;;3.40;;
59974;SDS011;62136;-35.664;-63.766;2023-05-10T04:25:59;6.47;;;3.47;;
59974;SDS011;62136;-35.664;-63.766;2023-05-10T04:28:26;5.13;;;3.58;;
59974;SDS011;62136;-35.664;-63.766;2023-05-10T04:30:59;7.25;;;4.28;;
59974;SDS011;62136;-35.664;-63.766;2023-05-10T04:33:30;6.47;;;3.15;;
59974;SDS011;62136;-35.664;-63.766;2023-05-10T04:35:58;6.38;;;3.97;;
59974;SDS011;62136;-35.664;-63.766;2023-05-10T04:38:26;6.93;;;3.63;;
59974;SDS011;62136;-35.664;-63.766;2023-05-10T04:40:53;6.07;;;3.63;;
59974;SDS011;62136;-35.664;-63.766;2023-05-10T04:43:29;7.25;;;3.75;;
59974;SDS011;62136;-35.664;-63.766;2023-05-10T04:45:56;7.57;;;3.95;;
59974;SDS011;62136;-35.664;-63.766;2023-05-10T04:48:23;6.82;;;3.30;;
59974;SDS011;62136;-35.664;-63.766;2023-05-10T04:50:53;6.55;;;3.72;;
59974;SDS011;62136;-35.664;-63.766;2023-05-10T04:53:20;5.45;;;3.70;;
59974;SDS011;62136;-35.664;-63.766;2023-05-10T04:55:47;6.53;;;3.55;;
59974;SDS011;62136;-35.664;-63.766;2023-05-10T04:58:14;6.40;;;3.47;;
59974;SDS011;62136;-35.664;-63.766;2023-05-10T05:00:42;7.63;;;3.83;;
59974;SDS011;62136;-35.664;-63.766;2023-05-10T05:03:09;5.03;;;3.10;;
59974;SDS011;62136;-35.664;-63.766;2023-05-10T05:05:36;7.53;;;3.38;;
59974;SDS011;62136;-35.664;-63.766;2023-05-10T05:08:03;6.55;;;3.80;;
59974;SDS011;62136;-35.664;-63.766;2023-05-10T05:10:31;7.70;;;3.70;;
59974;SDS011;62136;-35.664;-63.766;2023-05-10T05:12:58;6.05;;;3.38;;
59974;SDS011;62136;-35.664;-63.766;2023-05-10T05:15:25;6.72;;;3.00;;
59974;SDS011;62136;-35.664;-63.766;2023-05-10T05:17:53;4.75;;;3.40;;
59974;SDS011;62136;-35.664;-63.766;2023-05-10T05:20:20;5.63;;;2.83;;
59974;SDS011;62136;-35.664;-63.766;2023-05-10T05:22:47;5.15;;;3.08;;
59974;SDS011;62136;-35.664;-63.766;2023-05-10T05:25:14;4.15;;;3.10;;
59974;SDS011;62136;-35.664;-63.766;2023-05-10T05:27:41;4.35;;;3.30;;
59974;SDS011;62136;-35.664;-63.766;2023-05-10T05:30:09;6.57;;;3.33;;
59974;SDS011;62136;-35.664;-63.766;2023-05-10T05:32:36;7.78;;;3.05;;
59974;SDS011;62136;-35.664;-63.766;2023-05-10T05:35:04;6.65;;;3.70;;
59974;SDS011;62136;-35.664;-63.766;2023-05-10T05:37:31;4.45;;;2.97;;
59974;SDS011;62136;-35.664;-63.766;2023-05-10T05:39:58;3.65;;;2.83;;
59974;SDS011;62136;-35.664;-63.766;2023-05-10T05:42:27;4.40;;;2.67;;
59974;SDS011;62136;-35.664;-63.766;2023-05-10T05:44:54;4.03;;;3.10;;
59974;SDS011;62136;-35.664;-63.766;2023-05-10T05:47:21;4.50;;;3.10;;
59974;SDS011;62136;-35.664;-63.766;2023-05-10T05:49:48;4.38;;;3.10;;
59974;SDS011;62136;-35.664;-63.766;2023-05-10T05:52:15;5.13;;;2.92;;
59974;SDS011;62136;-35.664;-63.766;2023-05-10T05:54:42;5.70;;;3.05;;
59974;SDS011;62136;-35.664;-63.766;2023-05-10T05:57:09;4.40;;;2.80;;
59974;SDS011;62136;-35.664;-63.766;2023-05-10T05:59:36;5.65;;;3.67;;
59974;SDS011;62136;-35.664;-63.766;2023-05-10T06:02:08;5.47;;;3.10;;
59974;SDS011;62136;-35.664;-63.766;2023-05-10T06:04:35;4.78;;;3.28;;
59974;SDS011;62136;-35.664;-63.766;2023-05-10T06:07:02;5.30;;;2.80;;
59974;SDS011;62136;-35.664;-63.766;2023-05-10T06:09:29;5.20;;;2.63;;
59974;SDS011;62136;-35.664;-63.766;2023-05-10T06:11:56;5.20;;;2.55;;
59974;SDS011;62136;-35.664;-63.766;2023-05-10T06:14:23;4.45;;;2.97;;
59974;SDS011;62136;-35.664;-63.766;2023-05-10T06:16:51;5.38;;;3.22;;
59974;SDS011;62136;-35.664;-63.766;2023-05-10T06:19:18;5.10;;;3.00;;
59974;SDS011;62136;-35.664;-63.766;2023-05-10T06:21:45;5.63;;;2.65;;
59974;SDS011;62136;-35.664;-63.766;2023-05-10T06:24:12;6.35;;;2.80;;
59974;SDS011;62136;-35.664;-63.766;2023-05-10T06:26:39;6.35;;;2.85;;
59974;SDS011;62136;-35.664;-63.766;2023-05-10T06:29:06;5.18;;;2.72;;
59974;SDS011;62136;-35.664;-63.766;2023-05-10T06:31:33;6.00;;;2.90;;
59974;SDS011;62136;-35.664;-63.766;2023-05-10T06:34:00;4.28;;;2.80;;
59974;SDS011;62136;-35.664;-63.766;2023-05-10T06:36:27;5.50;;;2.85;;
59974;SDS011;62136;-35.664;-63.766;2023-05-10T06:38:54;4.60;;;2.58;;
59974;SDS011;62136;-35.664;-63.766;2023-05-10T06:41:21;4.30;;;2.28;;
59974;SDS011;62136;-35.664;-63.766;2023-05-10T06:43:49;4.10;;;2.58;;
59974;SDS011;62136;-35.664;-63.766;2023-05-10T06:46:16;4.07;;;2.67;;
59974;SDS011;62136;-35.664;-63.766;2023-05-10T06:48:43;4.35;;;2.80;;
59974;SDS011;62136;-35.664;-63.766;2023-05-10T06:51:10;5.43;;;2.30;;
59974;SDS011;62136;-35.664;-63.766;2023-05-10T06:53:37;3.30;;;2.60;;
59974;SDS011;62136;-35.664;-63.766;2023-05-10T06:56:04;3.47;;;2.60;;
59974;SDS011;62136;-35.664;-63.766;2023-05-10T06:58:31;4.30;;;2.70;;
59974;SDS011;62136;-35.664;-63.766;2023-05-10T07:01:02;5.20;;;2.97;;
59974;SDS011;62136;-35.664;-63.766;2023-05-10T07:03:30;3.92;;;2.50;;
59974;SDS011;62136;-35.664;-63.766;2023-05-10T07:06:03;4.20;;;2.45;;
59974;SDS011;62136;-35.664;-63.766;2023-05-10T07:11:02;3.92;;;2.45;;
59974;SDS011;62136;-35.664;-63.766;2023-05-10T07:13:30;4.05;;;2.22;;
59974;SDS011;62136;-35.664;-63.766;2023-05-10T07:15:58;2.42;;;2.22;;
59974;SDS011;62136;-35.664;-63.766;2023-05-10T07:18:26;3.22;;;2.38;;
59974;SDS011;62136;-35.664;-63.766;2023-05-10T07:20:53;4.25;;;2.45;;
59974;SDS011;62136;-35.664;-63.766;2023-05-10T07:23:20;4.18;;;2.67;;
59974;SDS011;62136;-35.664;-63.766;2023-05-10T07:25:47;3.47;;;2.15;;
59974;SDS011;62136;-35.664;-63.766;2023-05-10T07:28:16;5.30;;;2.40;;
59974;SDS011;62136;-35.664;-63.766;2023-05-10T07:30:44;3.22;;;2.40;;
59974;SDS011;62136;-35.664;-63.766;2023-05-10T07:33:12;4.50;;;2.88;;
59974;SDS011;62136;-35.664;-63.766;2023-05-10T07:35:40;4.43;;;2.25;;
59974;SDS011;62136;-35.664;-63.766;2023-05-10T07:38:07;3.97;;;2.70;;
59974;SDS011;62136;-35.664;-63.766;2023-05-10T07:40:36;3.08;;;2.30;;
59974;SDS011;62136;-35.664;-63.766;2023-05-10T07:43:03;3.50;;;2.10;;
59974;SDS011;62136;-35.664;-63.766;2023-05-10T07:45:30;4.95;;;2.33;;
59974;SDS011;62136;-35.664;-63.766;2023-05-10T07:47:58;3.60;;;2.40;;
59974;SDS011;62136;-35.664;-63.766;2023-05-10T07:50:25;2.70;;;2.33;;
59974;SDS011;62136;-35.664;-63.766;2023-05-10T07:52:52;3.40;;;2.25;;
59974;SDS011;62136;-35.664;-63.766;2023-05-10T07:55:20;2.97;;;1.90;;
59974;SDS011;62136;-35.664;-63.766;2023-05-10T07:57:47;4.22;;;2.28;;
59974;SDS011;62136;-35.664;-63.766;2023-05-10T08:00:17;3.53;;;2.05;;
59974;SDS011;62136;-35.664;-63.766;2023-05-10T08:02:45;3.80;;;2.47;;
59974;SDS011;62136;-35.664;-63.766;2023-05-10T08:05:13;3.88;;;2.00;;
59974;SDS011;62136;-35.664;-63.766;2023-05-10T08:07:40;3.22;;;2.20;;
59974;SDS011;62136;-35.664;-63.766;2023-05-10T08:10:08;5.40;;;2.03;;
59974;SDS011;62136;-35.664;-63.766;2023-05-10T08:12:36;4.22;;;2.00;;
59974;SDS011;62136;-35.664;-63.766;2023-05-10T08:15:04;3.25;;;1.88;;
59974;SDS011;62136;-35.664;-63.766;2023-05-10T08:17:32;3.50;;;2.10;;
59974;SDS011;62136;-35.664;-63.766;2023-05-10T08:19:59;3.33;;;2.20;;
59974;SDS011;62136;-35.664;-63.766;2023-05-10T08:22:27;3.85;;;2.20;;
59974;SDS011;62136;-35.664;-63.766;2023-05-10T08:24:54;4.90;;;2.30;;
59974;SDS011;62136;-35.664;-63.766;2023-05-10T08:27:21;2.25;;;2.00;;
59974;SDS011;62136;-35.664;-63.766;2023-05-10T08:29:48;5.43;;;2.10;;
59974;SDS011;62136;-35.664;-63.766;2023-05-10T08:32:15;3.28;;;1.80;;
59974;SDS011;62136;-35.664;-63.766;2023-05-10T08:34:43;3.58;;;2.05;;
59974;SDS011;62136;-35.664;-63.766;2023-05-10T08:37:10;4.38;;;1.88;;
59974;SDS011;62136;-35.664;-63.766;2023-05-10T08:39:38;4.25;;;2.10;;
59974;SDS011;62136;-35.664;-63.766;2023-05-10T08:42:05;2.92;;;1.90;;
59974;SDS011;62136;-35.664;-63.766;2023-05-10T08:44:34;3.17;;;1.85;;
59974;SDS011;62136;-35.664;-63.766;2023-05-10T08:47:02;4.10;;;1.70;;
59974;SDS011;62136;-35.664;-63.766;2023-05-10T08:49:34;1.88;;;1.58;;
59974;SDS011;62136;-35.664;-63.766;2023-05-10T08:52:03;3.45;;;1.85;;
59974;SDS011;62136;-35.664;-63.766;2023-05-10T08:54:32;2.42;;;1.50;;
59974;SDS011;62136;-35.664;-63.766;2023-05-10T08:57:00;3.35;;;1.77;;
59974;SDS011;62136;-35.664;-63.766;2023-05-10T08:59:27;2.20;;;1.65;;
59974;SDS011;62136;-35.664;-63.766;2023-05-10T09:01:58;2.40;;;2.03;;
59974;SDS011;62136;-35.664;-63.766;2023-05-10T09:04:26;3.92;;;2.25;;
59974;SDS011;62136;-35.664;-63.766;2023-05-10T09:06:54;3.00;;;1.73;;
59974;SDS011;62136;-35.664;-63.766;2023-05-10T09:09:21;3.63;;;2.08;;
59974;SDS011;62136;-35.664;-63.766;2023-05-10T09:11:49;2.90;;;1.85;;
59974;SDS011;62136;-35.664;-63.766;2023-05-10T09:14:17;2.15;;;1.73;;
59974;SDS011;62136;-35.664;-63.766;2023-05-10T09:16:45;3.67;;;2.28;;
59974;SDS011;62136;-35.664;-63.766;2023-05-10T09:19:14;2.55;;;2.17;;
59974;SDS011;62136;-35.664;-63.766;2023-05-10T09:21:41;2.75;;;1.75;;
59974;SDS011;62136;-35.664;-63.766;2023-05-10T09:24:09;2.63;;;1.95;;
59974;SDS011;62136;-35.664;-63.766;2023-05-10T09:26:39;2.90;;;1.65;;
59974;SDS011;62136;-35.664;-63.766;2023-05-10T09:29:14;4.50;;;1.55;;
59974;SDS011;62136;-35.664;-63.766;2023-05-10T09:34:09;4.93;;;1.98;;
59974;SDS011;62136;-35.664;-63.766;2023-05-10T09:36:36;2.10;;;1.77;;
59974;SDS011;62136;-35.664;-63.766;2023-05-10T09:39:15;3.13;;;1.67;;
59974;SDS011;62136;-35.664;-63.766;2023-05-10T09:41:42;2.50;;;1.83;;
59974;SDS011;62136;-35.664;-63.766;2023-05-10T09:44:09;1.75;;;1.50;;
59974;SDS011;62136;-35.664;-63.766;2023-05-10T09:46:36;2.95;;;1.70;;
59974;SDS011;62136;-35.664;-63.766;2023-05-10T09:49:03;3.40;;;1.73;;
59974;SDS011;62136;-35.664;-63.766;2023-05-10T09:51:32;2.80;;;1.58;;
59974;SDS011;62136;-35.664;-63.766;2023-05-10T09:54:18;1.67;;;1.45;;
59974;SDS011;62136;-35.664;-63.766;2023-05-10T09:59:11;3.10;;;1.90;;
59974;SDS011;62136;-35.664;-63.766;2023-05-10T10:01:39;3.13;;;1.60;;
59974;SDS011;62136;-35.664;-63.766;2023-05-10T10:04:08;2.10;;;1.60;;
59974;SDS011;62136;-35.664;-63.766;2023-05-10T10:06:36;2.25;;;1.60;;
59974;SDS011;62136;-35.664;-63.766;2023-05-10T10:09:05;2.67;;;2.00;;
59974;SDS011;62136;-35.664;-63.766;2023-05-10T10:11:36;3.03;;;1.55;;
59974;SDS011;62136;-35.664;-63.766;2023-05-10T10:14:05;2.13;;;1.63;;
59974;SDS011;62136;-35.664;-63.766;2023-05-10T10:16:33;3.50;;;2.15;;
59974;SDS011;62136;-35.664;-63.766;2023-05-10T10:19:03;2.83;;;1.92;;
59974;SDS011;62136;-35.664;-63.766;2023-05-10T10:21:32;2.85;;;1.45;;
59974;SDS011;62136;-35.664;-63.766;2023-05-10T10:23:59;2.10;;;1.50;;
59974;SDS011;62136;-35.664;-63.766;2023-05-10T10:26:27;2.28;;;1.65;;
59974;SDS011;62136;-35.664;-63.766;2023-05-10T10:34:27;2.17;;;1.48;;
59974;SDS011;62136;-35.664;-63.766;2023-05-10T10:36:56;1.75;;;1.42;;
59974;SDS011;62136;-35.664;-63.766;2023-05-10T10:39:24;1.95;;;1.70;;
59974;SDS011;62136;-35.664;-63.766;2023-05-10T10:41:53;2.58;;;1.40;;
59974;SDS011;62136;-35.664;-63.766;2023-05-10T10:47:04;3.35;;;1.45;;
59974;SDS011;62136;-35.664;-63.766;2023-05-10T10:52:13;2.60;;;1.35;;
59974;SDS011;62136;-35.664;-63.766;2023-05-10T10:55:04;1.75;;;1.23;;
59974;SDS011;62136;-35.664;-63.766;2023-05-10T11:00:27;2.40;;;1.30;;
59974;SDS011;62136;-35.664;-63.766;2023-05-10T11:03:14;2.70;;;1.42;;
59974;SDS011;62136;-35.664;-63.766;2023-05-10T11:05:57;2.90;;;1.38;;
59974;SDS011;62136;-35.664;-63.766;2023-05-10T11:08:28;6.50;;;1.40;;
59974;SDS011;62136;-35.664;-63.766;2023-05-10T11:16:19;2.25;;;1.58;;
59974;SDS011;62136;-35.664;-63.766;2023-05-10T11:19:02;3.13;;;1.60;;
59974;SDS011;62136;-35.664;-63.766;2023-05-10T11:21:31;2.60;;;1.50;;
59974;SDS011;62136;-35.664;-63.766;2023-05-10T11:24:00;5.25;;;2.15;;
59974;SDS011;62136;-35.664;-63.766;2023-05-10T11:26:31;4.82;;;2.03;;
59974;SDS011;62136;-35.664;-63.766;2023-05-10T11:29:04;2.97;;;2.40;;
59974;SDS011;62136;-35.664;-63.766;2023-05-10T11:31:31;4.18;;;2.63;;
59974;SDS011;62136;-35.664;-63.766;2023-05-10T11:33:58;6.15;;;3.35;;
59974;SDS011;62136;-35.664;-63.766;2023-05-10T11:36:34;6.30;;;3.47;;
59974;SDS011;62136;-35.664;-63.766;2023-05-10T11:39:02;5.13;;;3.55;;
59974;SDS011;62136;-35.664;-63.766;2023-05-10T11:41:30;6.45;;;3.60;;
59974;SDS011;62136;-35.664;-63.766;2023-05-10T11:43:59;5.22;;;3.55;;
59974;SDS011;62136;-35.664;-63.766;2023-05-10T11:46:28;6.25;;;4.07;;
59974;SDS011;62136;-35.664;-63.766;2023-05-10T11:48:58;5.47;;;3.95;;
59974;SDS011;62136;-35.664;-63.766;2023-05-10T11:51:32;5.07;;;3.38;;
59974;SDS011;62136;-35.664;-63.766;2023-05-10T11:54:08;6.43;;;3.35;;
59974;SDS011;62136;-35.664;-63.766;2023-05-10T11:56:38;4.90;;;2.85;;
59974;SDS011;62136;-35.664;-63.766;2023-05-10T11:59:06;5.15;;;2.47;;
59974;SDS011;62136;-35.664;-63.766;2023-05-10T12:01:34;3.78;;;2.40;;
59974;SDS011;62136;-35.664;-63.766;2023-05-10T12:04:02;5.85;;;2.50;;
59974;SDS011;62136;-35.664;-63.766;2023-05-10T12:06:30;5.07;;;2.50;;
59974;SDS011;62136;-35.664;-63.766;2023-05-10T12:08:59;2.20;;;2.00;;
59974;SDS011;62136;-35.664;-63.766;2023-05-10T12:11:36;4.85;;;2.40;;
59974;SDS011;62136;-35.664;-63.766;2023-05-10T12:14:05;3.63;;;2.20;;
59974;SDS011;62136;-35.664;-63.766;2023-05-10T12:16:34;3.75;;;2.20;;
59974;SDS011;62136;-35.664;-63.766;2023-05-10T12:19:02;3.85;;;1.83;;
59974;SDS011;62136;-35.664;-63.766;2023-05-10T12:21:33;3.13;;;1.92;;
59974;SDS011;62136;-35.664;-63.766;2023-05-10T12:24:02;2.70;;;1.90;;
59974;SDS011;62136;-35.664;-63.766;2023-05-10T12:26:33;1.90;;;1.80;;
59974;SDS011;62136;-35.664;-63.766;2023-05-10T12:29:14;1.90;;;1.70;;
59974;SDS011;62136;-35.664;-63.766;2023-05-10T12:31:50;3.33;;;1.90;;
59974;SDS011;62136;-35.664;-63.766;2023-05-10T12:34:42;2.50;;;1.70;;
59974;SDS011;62136;-35.664;-63.766;2023-05-10T12:37:12;2.88;;;2.00;;
59974;SDS011;62136;-35.664;-63.766;2023-05-10T12:39:43;2.20;;;1.70;;
59974;SDS011;62136;-35.664;-63.766;2023-05-10T12:42:11;2.92;;;1.65;;
59974;SDS011;62136;-35.664;-63.766;2023-05-10T12:44:38;2.97;;;1.83;;
59974;SDS011;62136;-35.664;-63.766;2023-05-10T12:47:05;3.45;;;1.75;;
59974;SDS011;62136;-35.664;-63.766;2023-05-10T12:49:38;3.75;;;1.95;;
59974;SDS011;62136;-35.664;-63.766;2023-05-10T12:52:05;5.97;;;1.65;;
59974;SDS011;62136;-35.664;-63.766;2023-05-10T12:54:34;2.85;;;1.50;;
59974;SDS011;62136;-35.664;-63.766;2023-05-10T12:57:01;2.10;;;1.50;;
59974;SDS011;62136;-35.664;-63.766;2023-05-10T12:59:29;4.32;;;1.25;;
59974;SDS011;62136;-35.664;-63.766;2023-05-10T13:01:57;2.80;;;1.35;;
59974;SDS011;62136;-35.664;-63.766;2023-05-10T13:04:26;2.65;;;1.23;;
59974;SDS011;62136;-35.664;-63.766;2023-05-10T13:06:58;3.72;;;1.75;;
59974;SDS011;62136;-35.664;-63.766;2023-05-10T13:09:26;2.45;;;1.17;;
59974;SDS011;62136;-35.664;-63.766;2023-05-10T13:11:56;3.08;;;1.23;;
59974;SDS011;62136;-35.664;-63.766;2023-05-10T13:14:23;5.57;;;1.70;;
59974;SDS011;62136;-35.664;-63.766;2023-05-10T13:16:51;1.90;;;1.30;;
59974;SDS011;62136;-35.664;-63.766;2023-05-10T13:19:20;2.90;;;1.17;;
59974;SDS011;62136;-35.664;-63.766;2023-05-10T13:21:48;2.97;;;1.15;;
59974;SDS011;62136;-35.664;-63.766;2023-05-10T13:24:17;2.30;;;1.20;;
59974;SDS011;62136;-35.664;-63.766;2023-05-10T13:26:44;2.05;;;1.17;;
59974;SDS011;62136;-35.664;-63.766;2023-05-10T13:29:11;2.05;;;1.23;;
59974;SDS011;62136;-35.664;-63.766;2023-05-10T13:31:38;2.53;;;1.17;;
59974;SDS011;62136;-35.664;-63.766;2023-05-10T13:34:09;4.05;;;1.58;;
59974;SDS011;62136;-35.664;-63.766;2023-05-10T13:36:36;2.75;;;1.42;;
59974;SDS011;62136;-35.664;-63.766;2023-05-10T13:39:06;2.38;;;1.20;;
59974;SDS011;62136;-35.664;-63.766;2023-05-10T13:41:34;3.28;;;1.20;;
59974;SDS011;62136;-35.664;-63.766;2023-05-10T13:44:03;4.03;;;1.48;;
59974;SDS011;62136;-35.664;-63.766;2023-05-10T13:46:30;3.40;;;1.35;;
59974;SDS011;62136;-35.664;-63.766;2023-05-10T13:49:00;3.17;;;1.10;;
59974;SDS011;62136;-35.664;-63.766;2023-05-10T13:51:27;2.78;;;1.10;;
59974;SDS011;62136;-35.664;-63.766;2023-05-10T13:53:54;1.95;;;1.00;;
59974;SDS011;62136;-35.664;-63.766;2023-05-10T13:56:21;2.05;;;1.17;;
59974;SDS011;62136;-35.664;-63.766;2023-05-10T13:58:53;2.50;;;1.30;;
59974;SDS011;62136;-35.664;-63.766;2023-05-10T14:01:22;4.25;;;1.42;;
59974;SDS011;62136;-35.664;-63.766;2023-05-10T14:03:50;5.55;;;1.23;;
59974;SDS011;62136;-35.664;-63.766;2023-05-10T14:06:17;1.77;;;1.40;;
59974;SDS011;62136;-35.664;-63.766;2023-05-10T14:08:45;3.50;;;1.38;;
59974;SDS011;62136;-35.664;-63.766;2023-05-10T14:11:12;1.70;;;1.50;;
59974;SDS011;62136;-35.664;-63.766;2023-05-10T14:13:43;2.53;;;1.90;;
59974;SDS011;62136;-35.664;-63.766;2023-05-10T14:16:13;4.13;;;2.90;;
59974;SDS011;62136;-35.664;-63.766;2023-05-10T14:18:43;2.67;;;2.00;;
59974;SDS011;62136;-35.664;-63.766;2023-05-10T14:21:22;3.88;;;3.58;;
59974;SDS011;62136;-35.664;-63.766;2023-05-10T14:23:51;6.05;;;4.55;;
59974;SDS011;62136;-35.664;-63.766;2023-05-10T14:26:19;4.85;;;4.40;;
59974;SDS011;62136;-35.664;-63.766;2023-05-10T14:28:47;5.00;;;4.50;;
59974;SDS011;62136;-35.664;-63.766;2023-05-10T14:31:14;5.70;;;4.60;;
59974;SDS011;62136;-35.664;-63.766;2023-05-10T14:36:11;4.93;;;4.25;;
59974;SDS011;62136;-35.664;-63.766;2023-05-10T14:38:40;6.00;;;4.57;;
59974;SDS011;62136;-35.664;-63.766;2023-05-10T14:41:08;5.93;;;4.63;;
59974;SDS011;62136;-35.664;-63.766;2023-05-10T14:43:40;5.00;;;4.50;;
59974;SDS011;62136;-35.664;-63.766;2023-05-10T14:46:07;5.40;;;4.88;;
59974;SDS011;62136;-35.664;-63.766;2023-05-10T14:48:36;8.43;;;5.72;;
59974;SDS011;62136;-35.664;-63.766;2023-05-10T14:51:03;7.65;;;5.72;;
59974;SDS011;62136;-35.664;-63.766;2023-05-10T14:53:35;8.48;;;7.80;;
59974;SDS011;62136;-35.664;-63.766;2023-05-10T14:56:08;11.02;;;10.02;;